sensor_id;sensor_type;location;lat;lon;timestamp;pressure;altitude;pressure_sealevel;temperature;humidity
39491;BME280;25175;50.140;18.990;2023-02-19T00:03:27;98296.75;;;6.95;70.19
39491;BME280;25175;50.140;18.990;2023-02-19T00:07:12;98292.56;;;7.00;69.92
39491;BME280;25175;50.140;18.990;2023-02-19T00:10:25;98295.81;;;7.02;69.70
39491;BME280;25175;50.140;18.990;2023-02-19T00:13:35;98289.78;;;7.02;69.62
39491;BME280;25175;50.140;18.990;2023-02-19T00:16:45;98298.59;;;7.01;69.77
39491;BME280;25175;50.140;18.990;2023-02-19T00:19:56;98250.69;;;6.81;69.63
39491;BME280;25175;50.140;18.990;2023-02-19T00:23:22;98285.94;;;6.98;69.35
39491;BME280;25175;50.140;18.990;2023-02-19T00:26:47;98280.88;;;6.96;69.10
39491;BME280;25175;50.140;18.990;2023-02-19T00:29:56;98273.22;;;6.88;69.28
39491;BME280;25175;50.140;18.990;2023-02-19T00:33:15;98277.63;;;6.88;69.36
39491;BME280;25175;50.140;18.990;2023-02-19T00:36:38;98280.88;;;6.90;69.40
39491;BME280;25175;50.140;18.990;2023-02-19T00:39:45;98290.28;;;6.91;69.34
39491;BME280;25175;50.140;18.990;2023-02-19T00:42:51;98314.94;;;6.88;69.22
39491;BME280;25175;50.140;18.990;2023-02-19T00:46:03;98292.47;;;6.87;69.24
39491;BME280;25175;50.140;18.990;2023-02-19T00:49:19;98283.06;;;6.86;69.21
39491;BME280;25175;50.140;18.990;2023-02-19T00:52:37;98279.19;;;6.82;69.59
39491;BME280;25175;50.140;18.990;2023-02-19T00:55:46;98226.00;;;6.49;69.70
39491;BME280;25175;50.140;18.990;2023-02-19T01:02:23;98273.97;;;6.82;70.10
39491;BME280;25175;50.140;18.990;2023-02-19T01:05:58;98268.38;;;6.85;70.28
39491;BME280;25175;50.140;18.990;2023-02-19T01:12:52;98255.53;;;6.84;70.33
39491;BME280;25175;50.140;18.990;2023-02-19T01:16:07;98255.91;;;6.81;70.38
39491;BME280;25175;50.140;18.990;2023-02-19T01:19:17;98251.69;;;6.80;70.52
39491;BME280;25175;50.140;18.990;2023-02-19T01:22:46;98248.47;;;6.78;70.58
39491;BME280;25175;50.140;18.990;2023-02-19T01:25:58;98240.03;;;6.76;70.64
39491;BME280;25175;50.140;18.990;2023-02-19T01:29:14;98227.00;;;6.76;70.85
39491;BME280;25175;50.140;18.990;2023-02-19T01:39:38;98217.31;;;6.70;70.63
39491;BME280;25175;50.140;18.990;2023-02-19T01:42:47;98206.63;;;6.58;70.81
39491;BME280;25175;50.140;18.990;2023-02-19T01:45:58;98200.72;;;6.50;70.90
39491;BME280;25175;50.140;18.990;2023-02-19T01:49:07;98213.97;;;6.55;71.17
39491;BME280;25175;50.140;18.990;2023-02-19T01:52:51;98222.19;;;6.52;71.19
39491;BME280;25175;50.140;18.990;2023-02-19T01:56:15;98209.16;;;6.52;71.23
39491;BME280;25175;50.140;18.990;2023-02-19T02:04:00;98211.94;;;6.50;71.66
39491;BME280;25175;50.140;18.990;2023-02-19T02:11:19;98204.81;;;6.59;71.47
39491;BME280;25175;50.140;18.990;2023-02-19T02:18:44;98191.41;;;6.62;71.29
39491;BME280;25175;50.140;18.990;2023-02-19T02:22:22;98195.97;;;6.60;71.28
39491;BME280;25175;50.140;18.990;2023-02-19T02:25:59;98190.97;;;6.58;71.41
39491;BME280;25175;50.140;18.990;2023-02-19T02:29:59;98185.97;;;6.63;71.17
39491;BME280;25175;50.140;18.990;2023-02-19T02:37:19;98197.44;;;6.41;70.91
39491;BME280;25175;50.140;18.990;2023-02-19T02:53:17;98171.53;;;6.61;70.68
39491;BME280;25175;50.140;18.990;2023-02-19T02:56:49;98165.53;;;6.60;70.72
39491;BME280;25175;50.140;18.990;2023-02-19T03:00:39;98162.91;;;6.60;70.72
39491;BME280;25175;50.140;18.990;2023-02-19T03:04:04;98156.28;;;6.58;70.68
39491;BME280;25175;50.140;18.990;2023-02-19T03:11:39;98129.03;;;6.60;70.61
39491;BME280;25175;50.140;18.990;2023-02-19T03:15:43;98135.25;;;6.66;70.32
39491;BME280;25175;50.140;18.990;2023-02-19T03:19:22;98137.50;;;6.69;70.33
39491;BME280;25175;50.140;18.990;2023-02-19T03:22:35;98137.50;;;6.69;70.30
39491;BME280;25175;50.140;18.990;2023-02-19T03:25:57;98148.75;;;6.69;70.06
39491;BME280;25175;50.140;18.990;2023-02-19T03:29:23;98145.91;;;6.64;70.30
39491;BME280;25175;50.140;18.990;2023-02-19T03:32:45;98145.91;;;6.64;70.54
39491;BME280;25175;50.140;18.990;2023-02-19T03:36:03;98147.50;;;6.65;70.63
39491;BME280;25175;50.140;18.990;2023-02-19T03:43:52;98118.97;;;6.57;70.34
39491;BME280;25175;50.140;18.990;2023-02-19T03:47:32;98152.97;;;6.77;70.28
39491;BME280;25175;50.140;18.990;2023-02-19T03:51:14;98145.59;;;6.80;70.38
39491;BME280;25175;50.140;18.990;2023-02-19T03:54:40;98148.63;;;6.84;70.36
39491;BME280;25175;50.140;18.990;2023-02-19T03:58:06;98124.94;;;6.85;70.26
39491;BME280;25175;50.140;18.990;2023-02-19T04:01:30;98085.09;;;6.57;70.19
39491;BME280;25175;50.140;18.990;2023-02-19T04:04:49;98134.03;;;6.96;69.93
39491;BME280;25175;50.140;18.990;2023-02-19T04:08:28;98128.41;;;6.99;69.84
39491;BME280;25175;50.140;18.990;2023-02-19T04:11:57;98128.88;;;7.02;69.66
39491;BME280;25175;50.140;18.990;2023-02-19T04:15:09;98129.66;;;7.03;69.63
39491;BME280;25175;50.140;18.990;2023-02-19T04:18:40;98124.63;;;7.01;69.62
39491;BME280;25175;50.140;18.990;2023-02-19T04:22:07;98114.00;;;7.03;69.57
39491;BME280;25175;50.140;18.990;2023-02-19T04:25:18;98093.88;;;6.84;69.42
39491;BME280;25175;50.140;18.990;2023-02-19T04:28:40;98122.78;;;6.95;69.66
39491;BME280;25175;50.140;18.990;2023-02-19T04:36:34;98109.28;;;6.85;70.24
39491;BME280;25175;50.140;18.990;2023-02-19T04:39:42;98109.88;;;6.81;70.41
39491;BME280;25175;50.140;18.990;2023-02-19T04:43:48;98100.28;;;6.81;70.62
39491;BME280;25175;50.140;18.990;2023-02-19T04:47:24;98091.84;;;6.86;70.50
39491;BME280;25175;50.140;18.990;2023-02-19T04:50:33;98086.22;;;6.82;70.32
39491;BME280;25175;50.140;18.990;2023-02-19T04:53:58;98089.03;;;6.81;70.58
39491;BME280;25175;50.140;18.990;2023-02-19T04:57:03;98094.25;;;6.81;70.69
39491;BME280;25175;50.140;18.990;2023-02-19T05:00:45;98071.78;;;6.80;70.71
39491;BME280;25175;50.140;18.990;2023-02-19T05:04:16;98067.09;;;6.69;70.77
39491;BME280;25175;50.140;18.990;2023-02-19T05:07:27;97647.69;;;4.27;70.61
39491;BME280;25175;50.140;18.990;2023-02-19T05:10:56;98038.84;;;6.72;71.05
39491;BME280;25175;50.140;18.990;2023-02-19T05:14:13;98031.63;;;6.74;70.90
39491;BME280;25175;50.140;18.990;2023-02-19T05:17:24;98024.00;;;6.73;71.08
39491;BME280;25175;50.140;18.990;2023-02-19T05:20:55;98027.22;;;6.75;71.22
39491;BME280;25175;50.140;18.990;2023-02-19T05:28:07;98017.44;;;6.83;70.76
39491;BME280;25175;50.140;18.990;2023-02-19T05:31:30;98020.44;;;6.87;70.75
39491;BME280;25175;50.140;18.990;2023-02-19T05:38:23;98021.66;;;6.91;70.48
39491;BME280;25175;50.140;18.990;2023-02-19T05:41:35;98017.47;;;6.90;70.48
39491;BME280;25175;50.140;18.990;2023-02-19T05:44:43;98017.66;;;6.88;70.42
39491;BME280;25175;50.140;18.990;2023-02-19T05:48:07;98002.00;;;6.88;70.58
39491;BME280;25175;50.140;18.990;2023-02-19T05:51:20;97999.59;;;6.87;70.66
39491;BME280;25175;50.140;18.990;2023-02-19T05:54:39;98010.41;;;6.84;70.78
39491;BME280;25175;50.140;18.990;2023-02-19T05:57:47;98012.19;;;6.77;71.01
39491;BME280;25175;50.140;18.990;2023-02-19T06:00:54;98015.19;;;6.74;71.25
39491;BME280;25175;50.140;18.990;2023-02-19T06:04:02;98027.22;;;6.75;71.34
39491;BME280;25175;50.140;18.990;2023-02-19T06:07:49;98023.41;;;6.77;71.11
39491;BME280;25175;50.140;18.990;2023-02-19T06:11:04;98026.63;;;6.79;71.06
39491;BME280;25175;50.140;18.990;2023-02-19T06:14:12;98034.06;;;6.82;71.21
39491;BME280;25175;50.140;18.990;2023-02-19T06:17:19;98043.13;;;6.86;70.88
39491;BME280;25175;50.140;18.990;2023-02-19T06:20:33;98025.41;;;6.69;70.71
39491;BME280;25175;50.140;18.990;2023-02-19T06:23:46;98064.78;;;6.80;70.73
39491;BME280;25175;50.140;18.990;2023-02-19T06:27:07;98061.34;;;6.80;71.19
39491;BME280;25175;50.140;18.990;2023-02-19T06:30:15;98035.63;;;6.70;71.26
39491;BME280;25175;50.140;18.990;2023-02-19T06:33:24;98033.66;;;6.85;71.18
39491;BME280;25175;50.140;18.990;2023-02-19T06:36:35;98030.50;;;6.90;71.07
39491;BME280;25175;50.140;18.990;2023-02-19T06:39:44;98040.75;;;6.91;70.81
39491;BME280;25175;50.140;18.990;2023-02-19T06:43:14;98034.31;;;6.94;70.71
39491;BME280;25175;50.140;18.990;2023-02-19T06:46:43;98033.31;;;6.95;70.75
39491;BME280;25175;50.140;18.990;2023-02-19T06:49:53;98045.38;;;6.96;70.54
39491;BME280;25175;50.140;18.990;2023-02-19T06:52:59;98072.03;;;6.91;70.58
39491;BME280;25175;50.140;18.990;2023-02-19T06:59:49;98041.53;;;6.92;70.83
39491;BME280;25175;50.140;18.990;2023-02-19T07:02:55;98033.47;;;6.87;71.00
39491;BME280;25175;50.140;18.990;2023-02-19T07:06:02;98034.06;;;6.82;71.27
39491;BME280;25175;50.140;18.990;2023-02-19T07:09:13;98014.56;;;6.65;71.44
39491;BME280;25175;50.140;18.990;2023-02-19T07:12:19;98031.66;;;6.81;71.37
39491;BME280;25175;50.140;18.990;2023-02-19T07:15:31;98030.66;;;6.82;71.55
39491;BME280;25175;50.140;18.990;2023-02-19T07:19:10;98024.84;;;6.80;71.76
39491;BME280;25175;50.140;18.990;2023-02-19T07:22:33;98023.84;;;6.81;72.04
39491;BME280;25175;50.140;18.990;2023-02-19T07:25:40;98008.00;;;6.82;71.86
39491;BME280;25175;50.140;18.990;2023-02-19T07:28:47;98020.84;;;6.84;72.05
39491;BME280;25175;50.140;18.990;2023-02-19T07:31:58;98014.44;;;6.86;71.91
39491;BME280;25175;50.140;18.990;2023-02-19T07:39:34;97988.78;;;6.90;72.00
39491;BME280;25175;50.140;18.990;2023-02-19T07:42:43;97614.72;;;4.62;71.73
39491;BME280;25175;50.140;18.990;2023-02-19T07:45:55;97991.41;;;7.03;71.76
39491;BME280;25175;50.140;18.990;2023-02-19T07:49:04;97989.38;;;7.05;71.87
39491;BME280;25175;50.140;18.990;2023-02-19T07:53:05;97986.59;;;7.06;72.00
39491;BME280;25175;50.140;18.990;2023-02-19T07:56:23;97703.84;;;5.30;71.92
39491;BME280;25175;50.140;18.990;2023-02-19T07:59:39;97982.59;;;7.10;72.15
39491;BME280;25175;50.140;18.990;2023-02-19T08:03:16;97898.44;;;6.63;72.34
39491;BME280;25175;50.140;18.990;2023-02-19T08:06:33;97965.94;;;7.11;72.28
39491;BME280;25175;50.140;18.990;2023-02-19T08:09:39;97958.50;;;7.02;72.94
39491;BME280;25175;50.140;18.990;2023-02-19T08:13:16;97973.56;;;7.13;72.91
39491;BME280;25175;50.140;18.990;2023-02-19T08:16:28;97972.38;;;7.15;73.24
39491;BME280;25175;50.140;18.990;2023-02-19T08:19:34;97977.00;;;7.20;73.06
39491;BME280;25175;50.140;18.990;2023-02-19T08:22:52;97986.06;;;7.24;72.88
39491;BME280;25175;50.140;18.990;2023-02-19T08:26:31;97980.25;;;7.28;72.91
39491;BME280;25175;50.140;18.990;2023-02-19T08:30:07;97984.66;;;7.34;72.65
39491;BME280;25175;50.140;18.990;2023-02-19T08:33:26;97976.03;;;7.34;72.63
39491;BME280;25175;50.140;18.990;2023-02-19T08:36:44;97974.03;;;7.36;72.67
39491;BME280;25175;50.140;18.990;2023-02-19T08:44:22;97979.66;;;7.46;72.59
39491;BME280;25175;50.140;18.990;2023-02-19T08:47:29;97976.03;;;7.47;72.25
39491;BME280;25175;50.140;18.990;2023-02-19T08:50:37;97983.09;;;7.46;72.24
39491;BME280;25175;50.140;18.990;2023-02-19T08:57:12;97988.91;;;7.48;72.34
39491;BME280;25175;50.140;18.990;2023-02-19T09:00:25;97995.53;;;7.51;72.23
39491;BME280;25175;50.140;18.990;2023-02-19T09:07:30;98006.97;;;7.50;71.66
39491;BME280;25175;50.140;18.990;2023-02-19T09:10:38;97974.84;;;7.36;71.90
39491;BME280;25175;50.140;18.990;2023-02-19T09:13:45;98000.13;;;7.49;71.80
39491;BME280;25175;50.140;18.990;2023-02-19T09:16:54;98001.34;;;7.40;71.08
39491;BME280;25175;50.140;18.990;2023-02-19T09:20:01;98010.56;;;7.36;71.66
39491;BME280;25175;50.140;18.990;2023-02-19T09:23:23;98012.78;;;7.39;71.72
39491;BME280;25175;50.140;18.990;2023-02-19T09:26:47;98002.34;;;7.39;71.92
39491;BME280;25175;50.140;18.990;2023-02-19T09:30:15;98010.56;;;7.36;71.96
39491;BME280;25175;50.140;18.990;2023-02-19T09:33:27;97980.38;;;7.14;71.82
39491;BME280;25175;50.140;18.990;2023-02-19T09:36:38;98007.53;;;7.26;70.18
39491;BME280;25175;50.140;18.990;2023-02-19T09:39:59;98011.69;;;7.14;69.75
39491;BME280;25175;50.140;18.990;2023-02-19T09:43:34;98025.72;;;7.06;70.22
39491;BME280;25175;50.140;18.990;2023-02-19T09:47:01;98029.31;;;6.99;70.15
39491;BME280;25175;50.140;18.990;2023-02-19T09:50:22;98022.25;;;6.86;70.60
39491;BME280;25175;50.140;18.990;2023-02-19T09:53:50;98041.72;;;6.90;70.75
39491;BME280;25175;50.140;18.990;2023-02-19T09:57:02;98013.97;;;6.70;70.71
39491;BME280;25175;50.140;18.990;2023-02-19T10:00:21;97964.09;;;6.32;70.60
39491;BME280;25175;50.140;18.990;2023-02-19T10:03:36;98046.06;;;6.77;70.52
39491;BME280;25175;50.140;18.990;2023-02-19T10:06:53;98061.50;;;6.72;70.72
39491;BME280;25175;50.140;18.990;2023-02-19T10:10:27;98057.69;;;6.68;70.75
39491;BME280;25175;50.140;18.990;2023-02-19T10:13:39;98064.50;;;6.69;70.99
39491;BME280;25175;50.140;18.990;2023-02-19T10:17:08;98070.66;;;6.61;70.67
39491;BME280;25175;50.140;18.990;2023-02-19T10:20:26;98084.06;;;6.52;70.03
39491;BME280;25175;50.140;18.990;2023-02-19T10:23:49;98088.63;;;6.43;69.68
39491;BME280;25175;50.140;18.990;2023-02-19T10:27:29;98076.53;;;6.36;69.95
39491;BME280;25175;50.140;18.990;2023-02-19T10:30:36;98084.94;;;6.31;70.21
39491;BME280;25175;50.140;18.990;2023-02-19T10:33:50;98058.88;;;6.04;70.67
39491;BME280;25175;50.140;18.990;2023-02-19T10:37:00;98092.69;;;6.25;71.28
39491;BME280;25175;50.140;18.990;2023-02-19T10:40:17;98106.56;;;6.32;71.82
39491;BME280;25175;50.140;18.990;2023-02-19T10:43:35;98095.78;;;6.35;70.71
39491;BME280;25175;50.140;18.990;2023-02-19T10:47:00;98023.09;;;5.85;70.52
39491;BME280;25175;50.140;18.990;2023-02-19T10:50:55;98122.78;;;6.27;70.65
39491;BME280;25175;50.140;18.990;2023-02-19T10:54:15;98142.13;;;6.18;69.75
39491;BME280;25175;50.140;18.990;2023-02-19T10:57:29;98128.59;;;6.02;69.01
39491;BME280;25175;50.140;18.990;2023-02-19T11:01:18;97827.72;;;3.99;69.17
39491;BME280;25175;50.140;18.990;2023-02-19T11:05:00;98143.03;;;5.83;69.77
39491;BME280;25175;50.140;18.990;2023-02-19T11:12:11;98158.06;;;5.67;70.11
39491;BME280;25175;50.140;18.990;2023-02-19T11:15:26;98164.91;;;5.68;70.44
39491;BME280;25175;50.140;18.990;2023-02-19T11:18:39;98162.31;;;5.68;70.21
39491;BME280;25175;50.140;18.990;2023-02-19T11:25:23;98173.69;;;5.67;70.26
39491;BME280;25175;50.140;18.990;2023-02-19T11:28:32;98170.72;;;5.70;70.81
39491;BME280;25175;50.140;18.990;2023-02-19T11:31:42;98182.66;;;5.64;69.51
39491;BME280;25175;50.140;18.990;2023-02-19T11:34:48;98142.69;;;5.15;70.01
39491;BME280;25175;50.140;18.990;2023-02-19T11:37:56;97965.53;;;4.18;69.98
39491;BME280;25175;50.140;18.990;2023-02-19T11:41:14;98209.41;;;5.58;69.00
39491;BME280;25175;50.140;18.990;2023-02-19T11:44:44;98207.53;;;5.52;68.91
39491;BME280;25175;50.140;18.990;2023-02-19T11:48:20;98222.72;;;5.49;69.12
39491;BME280;25175;50.140;18.990;2023-02-19T11:52:03;98227.47;;;5.45;68.35
39491;BME280;25175;50.140;18.990;2023-02-19T11:55:50;98246.25;;;5.41;68.70
39491;BME280;25175;50.140;18.990;2023-02-19T11:59:16;98246.97;;;5.35;67.91
39491;BME280;25175;50.140;18.990;2023-02-19T12:03:04;98247.47;;;5.30;68.47
39491;BME280;25175;50.140;18.990;2023-02-19T12:06:38;98216.66;;;5.13;68.74
39491;BME280;25175;50.140;18.990;2023-02-19T12:10:06;98249.47;;;5.28;68.77
39491;BME280;25175;50.140;18.990;2023-02-19T12:14:13;98252.63;;;5.24;68.50
39491;BME280;25175;50.140;18.990;2023-02-19T12:18:07;98254.56;;;5.22;68.30
39491;BME280;25175;50.140;18.990;2023-02-19T12:25:53;98277.25;;;5.13;68.91
39491;BME280;25175;50.140;18.990;2023-02-19T12:29:23;98295.00;;;5.10;69.37
39491;BME280;25175;50.140;18.990;2023-02-19T12:37:03;98293.56;;;4.93;68.65
39491;BME280;25175;50.140;18.990;2023-02-19T12:40:31;98234.91;;;4.39;68.27
39491;BME280;25175;50.140;18.990;2023-02-19T12:43:50;98310.28;;;4.76;68.11
39491;BME280;25175;50.140;18.990;2023-02-19T12:47:02;98305.25;;;4.74;68.83
39491;BME280;25175;50.140;18.990;2023-02-19T12:50:19;98304.25;;;4.75;68.84
39491;BME280;25175;50.140;18.990;2023-02-19T12:53:55;98314.09;;;4.65;67.60
39491;BME280;25175;50.140;18.990;2023-02-19T12:57:14;98319.47;;;4.64;67.79
39491;BME280;25175;50.140;18.990;2023-02-19T13:00:32;98326.81;;;4.60;68.00
39491;BME280;25175;50.140;18.990;2023-02-19T13:03:50;98330.09;;;4.54;67.61
39491;BME280;25175;50.140;18.990;2023-02-19T13:08:41;98335.47;;;4.53;67.88
39491;BME280;25175;50.140;18.990;2023-02-19T13:11:12;98343.59;;;4.50;67.58
39491;BME280;25175;50.140;18.990;2023-02-19T13:14:39;98339.28;;;4.42;67.09
39491;BME280;25175;50.140;18.990;2023-02-19T13:17:51;98351.16;;;4.37;67.04
39491;BME280;25175;50.140;18.990;2023-02-19T13:21:03;98359.66;;;4.31;66.68
39491;BME280;25175;50.140;18.990;2023-02-19T13:24:37;98363.88;;;4.24;66.58
39491;BME280;25175;50.140;18.990;2023-02-19T13:28:06;98370.06;;;4.23;67.05
39491;BME280;25175;50.140;18.990;2023-02-19T13:36:00;98394.97;;;4.09;66.07
39491;BME280;25175;50.140;18.990;2023-02-19T13:39:18;98394.97;;;4.09;65.45
39491;BME280;25175;50.140;18.990;2023-02-19T13:42:27;98175.66;;;2.67;65.13
39491;BME280;25175;50.140;18.990;2023-02-19T13:45:59;98407.63;;;4.04;65.06
39491;BME280;25175;50.140;18.990;2023-02-19T13:53:57;98418.88;;;3.97;64.19
39491;BME280;25175;50.140;18.990;2023-02-19T13:57:32;98435.09;;;3.99;64.19
39491;BME280;25175;50.140;18.990;2023-02-19T14:04:08;98441.06;;;3.99;64.41
39491;BME280;25175;50.140;18.990;2023-02-19T14:10:57;98450.97;;;3.96;63.07
39491;BME280;25175;50.140;18.990;2023-02-19T14:14:25;98449.06;;;3.98;63.38
39491;BME280;25175;50.140;18.990;2023-02-19T14:17:38;98452.63;;;3.97;62.60
39491;BME280;25175;50.140;18.990;2023-02-19T14:21:06;98435.13;;;3.67;63.37
39491;BME280;25175;50.140;18.990;2023-02-19T14:24:19;98478.25;;;4.00;62.49
39491;BME280;25175;50.140;18.990;2023-02-19T14:27:27;98475.00;;;3.98;62.39
39491;BME280;25175;50.140;18.990;2023-02-19T14:30:41;98495.78;;;3.98;62.41
39491;BME280;25175;50.140;18.990;2023-02-19T14:33:59;98483.28;;;3.93;62.01
39491;BME280;25175;50.140;18.990;2023-02-19T14:37:16;98486.69;;;3.94;62.92
39491;BME280;25175;50.140;18.990;2023-02-19T14:40:33;98497.22;;;3.92;62.94
39491;BME280;25175;50.140;18.990;2023-02-19T14:43:52;98297.06;;;2.62;62.92
39491;BME280;25175;50.140;18.990;2023-02-19T14:47:06;98492.88;;;3.93;63.60
39491;BME280;25175;50.140;18.990;2023-02-19T14:50:28;98500.31;;;3.96;63.74
39491;BME280;25175;50.140;18.990;2023-02-19T14:53:43;98496.75;;;3.97;62.59
39491;BME280;25175;50.140;18.990;2023-02-19T14:57:28;98467.69;;;3.77;61.96
39491;BME280;25175;50.140;18.990;2023-02-19T15:00:43;98514.75;;;3.98;62.56
39491;BME280;25175;50.140;18.990;2023-02-19T15:03:53;98502.59;;;3.99;62.89
39491;BME280;25175;50.140;18.990;2023-02-19T15:07:07;98164.72;;;1.85;62.01
39491;BME280;25175;50.140;18.990;2023-02-19T15:10:23;98519.31;;;3.96;62.05
39491;BME280;25175;50.140;18.990;2023-02-19T15:13:36;98522.41;;;3.92;61.68
39491;BME280;25175;50.140;18.990;2023-02-19T15:16:47;98518.97;;;3.91;61.30
39491;BME280;25175;50.140;18.990;2023-02-19T15:20:07;98530.19;;;3.92;62.14
39491;BME280;25175;50.140;18.990;2023-02-19T15:23:21;98537.31;;;3.90;61.75
39491;BME280;25175;50.140;18.990;2023-02-19T15:26:37;98522.56;;;3.82;62.58
39491;BME280;25175;50.140;18.990;2023-02-19T15:29:53;98542.19;;;3.93;62.35
39491;BME280;25175;50.140;18.990;2023-02-19T15:33:02;98548.00;;;3.95;62.69
39491;BME280;25175;50.140;18.990;2023-02-19T15:36:12;98548.16;;;3.93;62.25
39491;BME280;25175;50.140;18.990;2023-02-19T15:39:31;98547.22;;;3.94;61.64
39491;BME280;25175;50.140;18.990;2023-02-19T15:42:45;98559.53;;;3.92;61.41
39491;BME280;25175;50.140;18.990;2023-02-19T15:46:13;98570.25;;;3.89;60.85
39491;BME280;25175;50.140;18.990;2023-02-19T15:49:29;98571.53;;;3.85;60.87
39491;BME280;25175;50.140;18.990;2023-02-19T15:52:55;98574.28;;;3.76;59.44
39491;BME280;25175;50.140;18.990;2023-02-19T15:56:30;98599.25;;;3.69;59.69
39491;BME280;25175;50.140;18.990;2023-02-19T15:59:48;98601.84;;;3.69;60.09
39491;BME280;25175;50.140;18.990;2023-02-19T16:10:23;98624.84;;;3.56;59.14
39491;BME280;25175;50.140;18.990;2023-02-19T16:13:39;98620.00;;;3.53;59.14
39491;BME280;25175;50.140;18.990;2023-02-19T16:17:11;98626.31;;;3.50;58.49
39491;BME280;25175;50.140;18.990;2023-02-19T16:20:34;98647.38;;;3.47;58.42
39491;BME280;25175;50.140;18.990;2023-02-19T16:24:22;98648.00;;;3.41;57.95
39491;BME280;25175;50.140;18.990;2023-02-19T16:27:43;98653.50;;;3.38;58.26
39491;BME280;25175;50.140;18.990;2023-02-19T16:31:27;98534.53;;;2.62;58.48
39491;BME280;25175;50.140;18.990;2023-02-19T16:34:49;98663.88;;;3.38;58.37
39491;BME280;25175;50.140;18.990;2023-02-19T16:38:17;98662.38;;;3.20;58.55
39491;BME280;25175;50.140;18.990;2023-02-19T16:41:26;98696.13;;;3.36;57.65
39491;BME280;25175;50.140;18.990;2023-02-19T16:44:35;98447.88;;;1.73;57.82
39491;BME280;25175;50.140;18.990;2023-02-19T16:51:36;98722.41;;;3.41;58.01
39491;BME280;25175;50.140;18.990;2023-02-19T16:54:47;98741.59;;;3.48;58.22
39491;BME280;25175;50.140;18.990;2023-02-19T16:58:09;98746.78;;;3.56;58.15
39491;BME280;25175;50.140;18.990;2023-02-19T17:01:15;98769.00;;;3.25;58.42
39491;BME280;25175;50.140;18.990;2023-02-19T17:08:38;98768.19;;;3.58;58.36
39491;BME280;25175;50.140;18.990;2023-02-19T17:12:11;98776.94;;;3.57;58.21
39491;BME280;25175;50.140;18.990;2023-02-19T17:15:18;98779.69;;;3.55;57.69
39491;BME280;25175;50.140;18.990;2023-02-19T17:21:47;98750.53;;;3.20;57.49
39491;BME280;25175;50.140;18.990;2023-02-19T17:24:59;98772.88;;;3.54;57.36
39491;BME280;25175;50.140;18.990;2023-02-19T17:28:05;98770.47;;;3.53;58.18
39491;BME280;25175;50.140;18.990;2023-02-19T17:31:11;98778.41;;;3.51;58.24
39491;BME280;25175;50.140;18.990;2023-02-19T17:34:22;98775.47;;;3.54;57.65
39491;BME280;25175;50.140;18.990;2023-02-19T17:37:29;98788.28;;;3.56;57.67
39491;BME280;25175;50.140;18.990;2023-02-19T17:40:38;98795.72;;;3.51;57.36
39491;BME280;25175;50.140;18.990;2023-02-19T17:43:45;98803.00;;;3.47;57.61
39491;BME280;25175;50.140;18.990;2023-02-19T17:50:27;98836.16;;;3.36;57.23
39491;BME280;25175;50.140;18.990;2023-02-19T17:53:35;98822.88;;;3.31;56.73
39491;BME280;25175;50.140;18.990;2023-02-19T17:56:47;98791.06;;;2.95;56.71
39491;BME280;25175;50.140;18.990;2023-02-19T17:59:56;98842.94;;;3.29;56.18
39491;BME280;25175;50.140;18.990;2023-02-19T18:03:15;98833.69;;;3.26;56.60
39491;BME280;25175;50.140;18.990;2023-02-19T18:06:24;98809.09;;;3.05;56.40
39491;BME280;25175;50.140;18.990;2023-02-19T18:09:32;98843.19;;;3.18;56.75
39491;BME280;25175;50.140;18.990;2023-02-19T18:16:43;98859.88;;;3.15;56.75
39491;BME280;25175;50.140;18.990;2023-02-19T18:19:50;98870.38;;;3.14;57.46
39491;BME280;25175;50.140;18.990;2023-02-19T18:23:00;98874.78;;;3.13;57.16
39491;BME280;25175;50.140;18.990;2023-02-19T18:26:08;98879.31;;;3.11;57.33
39491;BME280;25175;50.140;18.990;2023-02-19T18:29:15;98876.53;;;3.13;57.04
39491;BME280;25175;50.140;18.990;2023-02-19T18:32:46;98880.94;;;3.12;57.40
39491;BME280;25175;50.140;18.990;2023-02-19T18:36:15;98882.69;;;3.12;57.03
39491;BME280;25175;50.140;18.990;2023-02-19T18:39:35;98880.72;;;3.06;57.33
39491;BME280;25175;50.140;18.990;2023-02-19T18:42:45;98880.44;;;3.09;56.83
39491;BME280;25175;50.140;18.990;2023-02-19T18:45:54;98797.22;;;2.51;56.40
39491;BME280;25175;50.140;18.990;2023-02-19T18:49:20;98888.13;;;3.01;56.88
39491;BME280;25175;50.140;18.990;2023-02-19T18:52:26;98895.38;;;2.97;56.92
39491;BME280;25175;50.140;18.990;2023-02-19T18:55:36;98584.94;;;1.03;56.90
39491;BME280;25175;50.140;18.990;2023-02-19T18:58:41;98906.00;;;2.86;56.41
39491;BME280;25175;50.140;18.990;2023-02-19T19:01:48;98909.84;;;2.82;56.60
39491;BME280;25175;50.140;18.990;2023-02-19T19:05:01;98916.28;;;2.78;56.55
39491;BME280;25175;50.140;18.990;2023-02-19T19:08:10;98916.72;;;2.74;56.59
39491;BME280;25175;50.140;18.990;2023-02-19T19:11:17;98923.69;;;2.73;56.87
39491;BME280;25175;50.140;18.990;2023-02-19T19:14:24;98932.56;;;2.71;56.68
39491;BME280;25175;50.140;18.990;2023-02-19T19:17:29;98927.97;;;2.65;56.50
39491;BME280;25175;50.140;18.990;2023-02-19T19:20:39;98937.00;;;2.61;56.70
39491;BME280;25175;50.140;18.990;2023-02-19T19:27:57;98892.50;;;2.30;56.45
39491;BME280;25175;50.140;18.990;2023-02-19T19:35:33;98937.09;;;2.42;56.86
39491;BME280;25175;50.140;18.990;2023-02-19T19:38:41;98943.84;;;2.35;57.23
39491;BME280;25175;50.140;18.990;2023-02-19T19:45:48;98969.66;;;2.27;57.53
39491;BME280;25175;50.140;18.990;2023-02-19T19:49:00;98967.19;;;2.25;57.49
39491;BME280;25175;50.140;18.990;2023-02-19T19:52:51;98971.97;;;2.20;57.98
39491;BME280;25175;50.140;18.990;2023-02-19T19:56:08;98947.78;;;2.12;58.17
39491;BME280;25175;50.140;18.990;2023-02-19T19:59:39;98961.75;;;2.19;58.20
39491;BME280;25175;50.140;18.990;2023-02-19T20:02:45;98964.22;;;2.20;58.26
39491;BME280;25175;50.140;18.990;2023-02-19T20:09:13;98962.00;;;2.25;59.09
39491;BME280;25175;50.140;18.990;2023-02-19T20:13:34;98958.03;;;2.31;58.87
39491;BME280;25175;50.140;18.990;2023-02-19T20:20:18;98953.75;;;2.39;58.82